Time;durP1;ratioP1;P1;durP2;ratioP2;P2;SDS_P1;SDS_P2;PMS_P1;PMS_P2;Temp;Humidity;BMP_temperature;BMP_pressure;BME280_temperature;BME280_humidity;BME280_pressure;Samples;Min_cycle;Max_cycle;Signal;HPM_P1;HPM_P2
2023/10/19 00:01:25;;;;;;;14.55;10.55;;;11.60;99.90;;;;;;5033401;28;20041;-74
2023/10/19 00:03:53;;;;;;;13.35;10.77;;;11.60;99.90;;;;;;5033063;28;20045;-74
2023/10/19 00:06:18;;;;;;;13.75;10.50;;;11.70;99.90;;;;;;5015744;28;20379;-74
2023/10/19 00:08:44;;;;;;;12.68;11.27;;;11.70;99.90;;;;;;5033012;28;20068;-75
2023/10/19 00:11:21;;;;;;;13.68;11.15;;;11.80;99.90;;;;;;5036985;28;20480;-75
2023/10/19 00:13:51;;;;;;;12.68;11.32;;;11.80;99.90;;;;;;5037430;28;20034;-74
2023/10/19 00:16:17;;;;;;;12.88;11.48;;;11.80;99.90;;;;;;5037014;28;20030;-75
2023/10/19 00:18:48;;;;;;;12.40;11.10;;;11.90;99.90;;;;;;5019676;28;20377;-74
2023/10/19 00:21:23;;;;;;;13.98;11.88;;;11.90;99.90;;;;;;5037090;28;20038;-75
2023/10/19 00:23:55;;;;;;;13.25;11.85;;;11.90;99.90;;;;;;5036686;28;20059;-74
2023/10/19 00:26:24;;;;;;;14.98;11.52;;;12.00;99.90;;;;;;5037201;28;20068;-74
2023/10/19 00:28:55;;;;;;;13.13;11.70;;;12.00;99.90;;;;;;5036893;28;20032;-74
2023/10/19 00:31:27;;;;;;;14.65;12.50;;;12.10;99.90;;;;;;5036483;28;20057;-75
2023/10/19 00:33:54;;;;;;;14.93;12.52;;;12.10;99.90;;;;;;5036927;28;20033;-76
2023/10/19 00:36:20;;;;;;;15.73;13.88;;;12.10;99.90;;;;;;5019127;28;20064;-76
2023/10/19 00:41:29;;;;;;;14.27;12.85;;;12.10;99.90;;;;;;5036739;28;20040;-75
2023/10/19 00:44:16;;;;;;;17.58;13.68;;;12.10;99.90;;;;;;5036508;28;20064;-76
2023/10/19 00:49:15;;;;;;;19.55;15.15;;;12.20;99.90;;;;;;5036310;28;20071;-76
2023/10/19 00:51:55;;;;;;;18.85;14.35;;;12.20;99.90;;;;;;5018917;28;20025;-76
2023/10/19 00:54:36;;;;;;;17.92;15.30;;;12.20;99.90;;;;;;5035923;28;20038;-75
2023/10/19 00:57:09;;;;;;;17.20;12.98;;;12.20;99.90;;;;;;5036431;28;20400;-77
2023/10/19 00:59:54;;;;;;;17.67;15.65;;;12.30;99.90;;;;;;5037014;28;20029;-77
2023/10/19 01:02:21;;;;;;;17.77;14.93;;;12.30;99.90;;;;;;5005599;28;20045;-77
2023/10/19 01:05:04;;;;;;;17.42;13.95;;;12.20;99.90;;;;;;5036546;28;20021;-75
2023/10/19 01:07:31;;;;;;;18.73;14.85;;;12.30;99.90;;;;;;5036466;28;20032;-76
2023/10/19 01:10:05;;;;;;;20.75;15.93;;;12.40;99.90;;;;;;5019109;28;20041;-77
2023/10/19 01:15:23;;;;;;;16.15;14.43;;;12.40;99.90;;;;;;5036378;28;20088;-76
2023/10/19 01:17:53;;;;;;;19.67;16.17;;;12.50;99.90;;;;;;5018258;28;20025;-77
2023/10/19 01:29:14;;;;;;;20.92;16.42;;;12.40;99.90;;;;;;5036384;28;20029;-76
2023/10/19 01:33:55;;;;;;;22.80;15.93;;;12.50;99.90;;;;;;5036080;28;20375;-76
2023/10/19 01:36:25;;;;;;;20.73;15.95;;;12.50;99.90;;;;;;5002282;28;20032;-76
2023/10/19 01:38:55;;;;;;;20.38;15.75;;;12.50;99.90;;;;;;5018123;28;20092;-76
2023/10/19 01:41:22;;;;;;;18.10;15.98;;;12.60;99.90;;;;;;5018713;28;20033;-76
2023/10/19 01:43:51;;;;;;;17.95;15.27;;;12.60;99.90;;;;;;5035795;28;20037;-76
2023/10/19 01:48:54;;;;;;;21.67;15.15;;;12.60;99.90;;;;;;5035456;28;20116;-76
2023/10/19 01:51:22;;;;;;;21.38;14.82;;;12.70;99.90;;;;;;5035851;28;20044;-76
2023/10/19 01:53:48;;;;;;;17.20;14.15;;;12.70;99.90;;;;;;5035136;28;20381;-76
2023/10/19 01:56:18;;;;;;;17.33;14.02;;;12.70;99.90;;;;;;5035521;28;20108;-76
2023/10/19 01:58:48;;;;;;;19.15;14.93;;;12.80;99.90;;;;;;5035679;28;20450;-76
2023/10/19 02:04:05;;;;;;;19.98;14.80;;;12.80;99.90;;;;;;5019293;28;20033;-76
2023/10/19 02:06:40;;;;;;;18.55;15.32;;;12.80;99.90;;;;;;5035551;28;20032;-76
2023/10/19 02:09:17;;;;;;;19.45;15.50;;;12.80;99.90;;;;;;5035304;28;20034;-76
2023/10/19 02:11:45;;;;;;;18.45;14.05;;;12.80;99.90;;;;;;5017257;28;20040;-78
2023/10/19 02:14:14;;;;;;;16.45;13.30;;;12.80;99.90;;;;;;5018006;28;20492;-76
2023/10/19 02:16:41;;;;;;;18.15;14.60;;;12.90;99.90;;;;;;5017986;28;20065;-77
2023/10/19 02:19:07;;;;;;;17.38;13.77;;;13.00;99.90;;;;;;5034787;28;20026;-77
2023/10/19 02:21:39;;;;;;;16.63;13.68;;;13.00;99.90;;;;;;5016903;28;20474;-77
2023/10/19 02:24:07;;;;;;;16.05;12.40;;;13.00;99.90;;;;;;5035035;28;20044;-77
2023/10/19 02:26:33;;;;;;;15.20;12.90;;;13.00;99.90;;;;;;5034716;28;20129;-77
2023/10/19 02:28:59;;;;;;;19.20;14.23;;;13.10;99.90;;;;;;5017138;28;20021;-77
2023/10/19 02:31:26;;;;;;;17.30;14.20;;;13.10;99.90;;;;;;5034604;28;20061;-76
2023/10/19 02:33:59;;;;;;;16.48;13.73;;;13.10;99.90;;;;;;5034674;28;20041;-76
2023/10/19 02:36:30;;;;;;;17.60;14.07;;;13.20;99.90;;;;;;5017781;28;20377;-76
2023/10/19 02:39:00;;;;;;;16.55;13.65;;;13.20;99.90;;;;;;5017575;28;20029;-76
2023/10/19 02:41:28;;;;;;;15.85;13.57;;;13.30;99.90;;;;;;5017448;28;20056;-77
2023/10/19 02:44:09;;;;;;;18.08;13.95;;;13.30;99.90;;;;;;5034787;28;20033;-77
2023/10/19 02:46:38;;;;;;;18.77;14.20;;;13.30;99.90;;;;;;5034884;28;20055;-77
2023/10/19 02:49:13;;;;;;;19.38;14.15;;;13.30;99.90;;;;;;5016821;28;20385;-78
2023/10/19 02:51:45;;;;;;;16.08;13.27;;;13.30;99.90;;;;;;5034286;28;20425;-77
2023/10/19 02:54:18;;;;;;;18.90;13.80;;;13.30;99.90;;;;;;5016689;28;20026;-77
2023/10/19 02:56:47;;;;;;;;;;;13.40;99.90;;;;;;5034885;28;20079;-77
2023/10/19 02:59:15;;;;;;;16.92;13.32;;;13.40;99.90;;;;;;5034284;28;19905;-77
2023/10/19 03:01:44;;;;;;;14.07;12.55;;;13.40;99.90;;;;;;5017034;28;20029;-76
2023/10/19 03:04:12;;;;;;;16.45;13.15;;;13.50;99.90;;;;;;5016548;28;20440;-76
2023/10/19 03:06:40;;;;;;;15.18;12.82;;;13.50;99.90;;;;;;5000734;28;20041;-76
2023/10/19 03:09:13;;;;;;;15.05;12.40;;;13.40;99.90;;;;;;5034503;28;20029;-76
2023/10/19 03:11:44;;;;;;;15.18;12.32;;;13.50;99.90;;;;;;5016864;28;20462;-77
2023/10/19 03:14:11;;;;;;;18.90;12.25;;;13.50;99.90;;;;;;5034125;28;20037;-76
2023/10/19 03:16:37;;;;;;;15.07;11.52;;;13.60;99.90;;;;;;5016830;28;20057;-76
2023/10/19 03:19:04;;;;;;;15.18;12.43;;;13.60;99.90;;;;;;5033731;28;20386;-75
2023/10/19 03:21:34;;;;;;;15.93;12.20;;;13.60;99.90;;;;;;5016893;28;20041;-76
2023/10/19 03:24:05;;;;;;;13.93;11.63;;;13.60;99.90;;;;;;5015984;28;20037;-77
2023/10/19 03:26:37;;;;;;;14.18;11.82;;;13.60;99.90;;;;;;5016815;28;20033;-76
2023/10/19 03:29:12;;;;;;;16.13;12.30;;;13.60;99.90;;;;;;5034039;28;20033;-76
2023/10/19 03:31:44;;;;;;;14.63;11.57;;;13.60;99.90;;;;;;5017405;28;20482;-77
2023/10/19 03:34:12;;;;;;;15.95;11.20;;;13.70;99.90;;;;;;5001695;28;20036;-77
2023/10/19 03:36:39;;;;;;;15.80;9.95;;;13.70;99.90;;;;;;5034409;28;20083;-77
2023/10/19 03:39:17;;;;;;;14.43;11.27;;;13.70;99.90;;;;;;5016284;28;20400;-77
2023/10/19 03:41:44;;;;;;;13.73;10.70;;;13.70;99.90;;;;;;5033805;28;20030;-77
2023/10/19 03:44:24;;;;;;;13.70;9.63;;;13.70;99.90;;;;;;5015672;28;20025;-77
2023/10/19 03:46:53;;;;;;;9.82;7.72;;;13.70;99.90;;;;;;5034244;28;20112;-76
2023/10/19 03:49:19;;;;;;;13.80;7.75;;;13.80;99.90;;;;;;5033886;28;20025;-77
2023/10/19 03:51:58;;;;;;;11.50;7.68;;;13.80;99.90;;;;;;5033541;28;20033;-77
2023/10/19 03:54:28;;;;;;;8.02;5.90;;;13.90;99.90;;;;;;5017868;28;20116;-76
2023/10/19 03:57:01;;;;;;;9.82;6.20;;;13.90;99.90;;;;;;5033071;28;20424;-76
2023/10/19 03:59:33;;;;;;;8.50;6.38;;;14.00;99.90;;;;;;5033532;28;20028;-76
2023/10/19 04:02:00;;;;;;;6.97;5.45;;;14.00;99.90;;;;;;5016467;28;20120;-76
2023/10/19 04:04:28;;;;;;;8.73;5.78;;;14.10;99.90;;;;;;5033229;28;20041;-76
2023/10/19 04:06:58;;;;;;;5.75;4.35;;;14.10;99.90;;;;;;5032962;28;20172;-77
2023/10/19 04:09:28;;;;;;;9.05;5.05;;;14.10;99.90;;;;;;5033227;28;20025;-76
2023/10/19 04:11:56;;;;;;;6.25;4.03;;;14.10;99.90;;;;;;5015353;28;20040;-76
2023/10/19 04:14:21;;;;;;;9.68;4.57;;;14.20;99.90;;;;;;5033104;28;20084;-77
2023/10/19 04:16:48;;;;;;;9.45;3.92;;;14.20;99.90;;;;;;5033155;28;20471;-76
2023/10/19 04:19:15;;;;;;;11.40;4.32;;;14.20;99.90;;;;;;5033113;28;20029;-76
2023/10/19 04:21:46;;;;;;;7.35;4.43;;;14.20;99.90;;;;;;5032998;28;20025;-76
2023/10/19 04:24:12;;;;;;;10.05;4.03;;;14.20;99.90;;;;;;5016029;28;20046;-77
2023/10/19 04:26:39;;;;;;;5.78;3.67;;;14.20;99.90;;;;;;5015508;28;20565;-76
2023/10/19 04:29:13;;;;;;;5.47;3.75;;;14.20;99.90;;;;;;5015480;28;20073;-77
2023/10/19 04:31:54;;;;;;;8.00;4.95;;;14.30;99.90;;;;;;5015163;28;20432;-77
2023/10/19 04:34:21;;;;;;;8.35;4.65;;;14.30;99.90;;;;;;5032920;28;20113;-77
2023/10/19 04:36:48;;;;;;;6.18;4.13;;;14.30;99.90;;;;;;5032826;28;20080;-76
2023/10/19 04:39:13;;;;;;;8.68;5.53;;;14.20;99.90;;;;;;5032743;28;20112;-75
2023/10/19 04:41:40;;;;;;;8.25;5.82;;;14.20;99.90;;;;;;5014885;28;20108;-75
2023/10/19 04:44:08;;;;;;;9.30;5.38;;;14.20;99.90;;;;;;5032701;28;20474;-76
2023/10/19 04:46:34;;;;;;;10.60;5.70;;;14.20;99.90;;;;;;5032738;28;20033;-76
2023/10/19 04:49:00;;;;;;;8.57;5.32;;;14.20;99.90;;;;;;5032765;28;20052;-75
2023/10/19 04:51:26;;;;;;;9.38;5.30;;;14.20;99.90;;;;;;5015137;28;20040;-75
2023/10/19 04:53:52;;;;;;;8.32;5.10;;;14.20;99.90;;;;;;5032369;28;20181;-76
2023/10/19 04:56:18;;;;;;;8.40;5.28;;;14.30;99.90;;;;;;5035003;28;20502;-76
2023/10/19 04:58:43;;;;;;;6.75;5.20;;;14.30;99.90;;;;;;5036219;28;20033;-76
2023/10/19 05:01:11;;;;;;;8.40;5.22;;;14.30;99.90;;;;;;5036478;28;20455;-76
2023/10/19 05:03:37;;;;;;;6.50;4.85;;;14.30;99.90;;;;;;5018916;28;20034;-75
2023/10/19 05:06:03;;;;;;;9.55;6.15;;;14.30;99.90;;;;;;5036373;28;20378;-75
2023/10/19 05:08:29;;;;;;;8.85;5.45;;;14.30;99.90;;;;;;5036141;28;20029;-76
2023/10/19 05:10:56;;;;;;;11.02;5.38;;;14.30;99.90;;;;;;5002520;28;20084;-76
2023/10/19 05:13:25;;;;;;;8.75;5.75;;;14.30;99.90;;;;;;5036054;28;20067;-76
2023/10/19 05:15:55;;;;;;;8.68;4.82;;;14.30;99.90;;;;;;5018294;28;20057;-76
2023/10/19 05:18:22;;;;;;;5.20;3.92;;;14.30;99.90;;;;;;5036037;28;20033;-76
2023/10/19 05:20:50;;;;;;;7.07;5.13;;;14.30;99.90;;;;;;5035566;28;20434;-76
2023/10/19 05:23:16;;;;;;;7.55;5.40;;;14.30;99.90;;;;;;5018265;28;20033;-75
2023/10/19 05:25:42;;;;;;;4.95;4.13;;;14.30;99.90;;;;;;5001836;28;20034;-76
2023/10/19 05:28:08;;;;;;;7.97;5.60;;;14.30;99.90;;;;;;5001922;28;20525;-75
2023/10/19 05:30:35;;;;;;;6.53;5.65;;;14.40;99.90;;;;;;5035709;28;20524;-75
2023/10/19 05:33:01;;;;;;;9.60;5.07;;;14.40;99.90;;;;;;5035648;28;20056;-75
2023/10/19 05:35:28;;;;;;;5.32;3.97;;;14.40;99.90;;;;;;5036067;28;20030;-75
2023/10/19 05:37:56;;;;;;;5.93;4.10;;;14.40;99.90;;;;;;5018403;28;20030;-75
2023/10/19 05:40:23;;;;;;;7.97;4.13;;;14.40;99.90;;;;;;5035315;28;20036;-75
2023/10/19 05:42:49;;;;;;;5.85;5.25;;;14.50;99.90;;;;;;5035593;28;20104;-74
2023/10/19 05:45:16;;;;;;;5.07;3.80;;;14.40;99.90;;;;;;5017842;28;20113;-75
2023/10/19 05:47:44;;;;;;;6.90;4.90;;;14.50;99.90;;;;;;5017709;28;20025;-75
2023/10/19 05:50:14;;;;;;;7.55;5.03;;;14.50;99.90;;;;;;5017728;28;20033;-75
2023/10/19 05:52:43;;;;;;;10.25;5.68;;;14.50;99.90;;;;;;5035394;28;20029;-76
2023/10/19 05:55:10;;;;;;;5.70;3.22;;;14.50;99.90;;;;;;5017794;28;20029;-75
2023/10/19 05:57:40;;;;;;;10.18;6.18;;;14.50;99.90;;;;;;5017646;28;20037;-75
2023/10/19 06:00:13;;;;;;;7.75;6.07;;;14.50;99.90;;;;;;5001306;28;20040;-75
2023/10/19 06:02:49;;;;;;;5.80;3.80;;;14.50;99.90;;;;;;5035138;28;20120;-75
2023/10/19 06:05:16;;;;;;;8.48;4.78;;;14.50;99.90;;;;;;5018140;28;20030;-75
2023/10/19 06:07:46;;;;;;;8.35;6.03;;;14.50;99.90;;;;;;5034382;28;20381;-75
2023/10/19 06:10:16;;;;;;;5.72;4.80;;;14.50;99.90;;;;;;5017746;28;20041;-75
2023/10/19 06:12:47;;;;;;;4.28;3.15;;;14.50;99.90;;;;;;5035496;28;20029;-78
2023/10/19 06:15:13;;;;;;;6.70;6.00;;;14.50;99.90;;;;;;5035435;28;20130;-77
2023/10/19 06:17:41;;;;;;;8.85;4.43;;;14.50;99.90;;;;;;5035039;28;20030;-77
2023/10/19 06:20:08;;;;;;;10.13;4.60;;;14.50;99.90;;;;;;5034976;28;20029;-77
2023/10/19 06:22:37;;;;;;;5.80;4.57;;;14.50;99.90;;;;;;5034608;28;20441;-76
2023/10/19 06:25:06;;;;;;;7.00;4.93;;;14.60;99.90;;;;;;5034995;28;20099;-76
2023/10/19 06:27:32;;;;;;;4.45;3.00;;;14.60;99.90;;;;;;5034845;28;20112;-76
2023/10/19 06:29:58;;;;;;;5.60;3.90;;;14.60;99.90;;;;;;5017197;28;20109;-77
2023/10/19 06:32:23;;;;;;;5.30;4.35;;;14.60;99.90;;;;;;4997614;28;20070;-78
2023/10/19 06:34:50;;;;;;;5.90;4.00;;;14.60;99.90;;;;;;5013907;28;20030;-78
2023/10/19 06:37:15;;;;;;;6.35;4.10;;;14.70;99.90;;;;;;5015644;28;20053;-77
2023/10/19 06:39:41;;;;;;;4.72;2.75;;;14.70;99.90;;;;;;5014958;28;20471;-77
2023/10/19 06:42:13;;;;;;;6.40;2.90;;;14.70;99.90;;;;;;5014759;28;20030;-76
2023/10/19 06:44:41;;;;;;;7.10;3.55;;;14.70;99.90;;;;;;5014608;28;20038;-76
2023/10/19 06:47:07;;;;;;;7.03;3.88;;;14.70;99.90;;;;;;5014802;28;20077;-79
2023/10/19 06:49:34;;;;;;;5.78;3.00;;;14.70;99.90;;;;;;5013458;28;20065;-76
2023/10/19 06:52:00;;;;;;;8.18;3.80;;;14.80;99.90;;;;;;5015085;28;20481;-77
2023/10/19 06:54:27;;;;;;;5.00;3.05;;;14.80;99.90;;;;;;5014502;28;20040;-77
2023/10/19 06:56:53;;;;;;;6.63;3.00;;;14.80;99.90;;;;;;5014291;28;20471;-77
2023/10/19 06:59:19;;;;;;;6.47;3.33;;;14.80;99.90;;;;;;4997438;28;20117;-77
2023/10/19 07:01:46;;;;;;;4.65;3.15;;;14.80;99.90;;;;;;4996758;28;20033;-78
2023/10/19 07:04:12;;;;;;;5.30;2.70;;;14.80;99.90;;;;;;5014447;28;20504;-79
2023/10/19 07:06:39;;;;;;;5.82;2.85;;;14.80;99.90;;;;;;5014580;28;20479;-79
2023/10/19 07:09:05;;;;;;;6.45;3.08;;;14.80;99.90;;;;;;5013203;28;20061;-78
2023/10/19 07:11:33;;;;;;;6.55;2.72;;;14.80;99.90;;;;;;5014235;28;20360;-77
2023/10/19 07:14:00;;;;;;;4.55;2.30;;;14.80;99.90;;;;;;5012694;28;20025;-79
2023/10/19 07:16:26;;;;;;;4.30;1.70;;;14.90;99.90;;;;;;5014121;28;20040;-79
2023/10/19 07:18:53;;;;;;;6.15;2.65;;;14.90;99.90;;;;;;4997340;28;20463;-76
2023/10/19 07:21:19;;;;;;;8.27;2.42;;;14.90;99.90;;;;;;5013935;28;20133;-78
2023/10/19 07:23:45;;;;;;;7.13;2.30;;;14.90;99.90;;;;;;5012206;28;20099;-80
2023/10/19 07:26:14;;;;;;;5.55;2.15;;;15.00;99.90;;;;;;5012891;28;20026;-80
2023/10/19 07:28:40;;;;;;;4.20;1.80;;;15.00;99.90;;;;;;5014006;28;20026;-78
2023/10/19 07:31:12;;;;;;;4.60;2.50;;;15.00;99.90;;;;;;5020201;28;20053;-78
2023/10/19 07:33:42;;;;;;;6.78;2.30;;;15.00;99.90;;;;;;5017620;28;20485;-76
2023/10/19 07:36:14;;;;;;;4.70;1.65;;;15.10;99.90;;;;;;5016817;28;20030;-77
2023/10/19 07:38:41;;;;;;;7.85;1.67;;;15.10;99.90;;;;;;5033740;28;20105;-76
2023/10/19 07:41:06;;;;;;;6.05;1.75;;;15.10;99.90;;;;;;4999461;28;20042;-77
2023/10/19 07:43:33;;;;;;;9.10;2.28;;;15.10;99.90;;;;;;5033747;28;20044;-78
2023/10/19 07:45:59;;;;;;;6.10;2.08;;;15.10;99.90;;;;;;5033424;28;20044;-78
2023/10/19 07:48:24;;;;;;;5.05;1.38;;;15.10;99.90;;;;;;5033148;28;20021;-77
2023/10/19 07:50:50;;;;;;;4.00;1.50;;;15.20;99.90;;;;;;5016880;28;20056;-78
2023/10/19 07:53:17;;;;;;;7.68;1.70;;;15.10;99.90;;;;;;5035709;28;20414;-80
2023/10/19 07:55:43;;;;;;;4.95;1.10;;;15.20;99.90;;;;;;5003850;28;20034;-78
2023/10/19 07:58:10;;;;;;;4.05;0.85;;;15.20;99.90;;;;;;5035487;28;20026;-78
2023/10/19 08:00:36;;;;;;;6.07;1.40;;;15.20;99.90;;;;;;5034401;28;20034;-79
2023/10/19 08:03:02;;;;;;;6.32;0.88;;;15.20;99.90;;;;;;5034729;28;20109;-80
2023/10/19 08:05:28;;;;;;;3.88;1.00;;;15.20;99.90;;;;;;5033341;28;20111;-79
2023/10/19 08:07:57;;;;;;;7.95;1.10;;;15.30;99.90;;;;;;5016688;28;20025;-82
2023/10/19 08:10:22;;;;;;;3.92;0.88;;;15.30;99.90;;;;;;5032983;28;20036;-82
2023/10/19 08:12:49;;;;;;;3.88;0.80;;;15.30;99.90;;;;;;5033212;28;20033;-82
2023/10/19 08:15:17;;;;;;;9.95;1.10;;;15.30;99.90;;;;;;5033858;28;20180;-82
2023/10/19 08:17:45;;;;;;;9.48;1.15;;;15.30;99.90;;;;;;5033615;28;20036;-83
2023/10/19 08:20:30;;;;;;;5.07;1.30;;;15.40;99.90;;;;;;5032945;28;20030;-82
2023/10/19 08:22:59;;;;;;;8.85;0.95;;;15.40;99.90;;;;;;5033266;28;20107;-81
2023/10/19 08:25:28;;;;;;;5.88;0.80;;;15.40;99.90;;;;;;5032965;28;20475;-81
2023/10/19 08:27:57;;;;;;;5.22;0.98;;;15.40;99.90;;;;;;5033179;28;20038;-81
2023/10/19 08:30:23;;;;;;;8.48;0.68;;;15.40;99.90;;;;;;5015705;28;20124;-80
2023/10/19 08:32:51;;;;;;;4.15;0.65;;;15.40;99.90;;;;;;5015881;28;20060;-81
2023/10/19 08:35:20;;;;;;;9.18;0.98;;;15.40;99.90;;;;;;5017120;28;20030;-81
2023/10/19 08:37:46;;;;;;;5.25;0.80;;;15.40;99.90;;;;;;4999911;28;20026;-79
2023/10/19 08:40:14;;;;;;;14.77;1.58;;;15.50;99.90;;;;;;5015782;28;20041;-77
2023/10/19 08:42:48;;;;;;;8.38;0.90;;;15.50;99.90;;;;;;5015729;28;20038;-80
2023/10/19 08:45:16;;;;;;;5.68;1.05;;;15.50;99.90;;;;;;5016754;28;20461;-79
2023/10/19 08:48:00;;;;;;;10.95;0.90;;;15.50;99.90;;;;;;5015505;28;20030;-79
2023/10/19 08:50:33;;;;;;;6.38;1.20;;;15.50;99.90;;;;;;5017166;28;20084;-82
2023/10/19 08:53:04;;;;;;;10.82;1.40;;;15.50;99.90;;;;;;5015737;28;20084;-83
2023/10/19 08:55:31;;;;;;;9.13;1.30;;;15.50;99.90;;;;;;5015530;28;20121;-83
2023/10/19 08:58:00;;;;;;;10.15;1.45;;;15.50;99.90;;;;;;5016519;28;20030;-84
2023/10/19 09:00:26;;;;;;;7.65;1.05;;;15.50;99.90;;;;;;5016791;28;20443;-84
2023/10/19 09:02:59;;;;;;;9.10;1.02;;;15.60;99.90;;;;;;5017084;28;20108;-84
2023/10/19 09:05:25;;;;;;;9.90;1.60;;;15.60;99.90;;;;;;5016778;28;20022;-81
2023/10/19 09:07:55;;;;;;;5.32;1.10;;;15.60;99.90;;;;;;5016297;28;20045;-81
2023/10/19 09:10:26;;;;;;;8.68;1.27;;;15.60;99.90;;;;;;4998662;28;20072;-80
2023/10/19 09:13:10;;;;;;;7.88;1.38;;;15.70;99.90;;;;;;5014967;28;20482;-79
2023/10/19 09:15:41;;;;;;;13.30;2.20;;;15.70;99.90;;;;;;5016391;28;20072;-83
2023/10/19 09:18:18;;;;;;;6.93;1.90;;;15.70;99.90;;;;;;5016641;28;20034;-81
2023/10/19 09:20:52;;;;;;;9.80;1.83;;;15.70;99.90;;;;;;5014922;28;20285;-77
2023/10/19 09:23:22;;;;;;;7.60;1.60;;;15.70;99.90;;;;;;5015318;28;20025;-81
2023/10/19 09:25:50;;;;;;;10.45;1.40;;;15.70;99.90;;;;;;5015905;28;20347;-80
2023/10/19 09:28:17;;;;;;;4.85;1.33;;;15.70;99.90;;;;;;5015850;28;20076;-79
2023/10/19 09:30:43;;;;;;;8.90;1.40;;;15.70;99.90;;;;;;5017298;28;20041;-81
2023/10/19 09:33:09;;;;;;;10.57;1.27;;;15.80;99.90;;;;;;5036167;28;20021;-81
2023/10/19 09:35:37;;;;;;;11.93;2.30;;;15.80;99.90;;;;;;5035688;28;20108;-81
2023/10/19 09:38:05;;;;;;;8.00;2.15;;;15.80;99.90;;;;;;5018913;28;20040;-81
2023/10/19 09:40:30;;;;;;;10.40;2.35;;;15.90;99.90;;;;;;5035592;28;20108;-82
2023/10/19 09:42:58;;;;;;;9.05;2.05;;;15.90;99.90;;;;;;5016664;28;20124;-81
2023/10/19 09:45:30;;;;;;;18.40;2.53;;;16.00;99.90;;;;;;5035211;28;20038;-81
2023/10/19 09:47:56;;;;;;;9.63;2.08;;;16.00;99.90;;;;;;5035607;28;20390;-82
2023/10/19 09:50:22;;;;;;;8.80;2.38;;;16.10;99.90;;;;;;5035360;28;20037;-82
2023/10/19 09:52:49;;;;;;;10.38;3.47;;;16.20;99.90;;;;;;5017853;28;20036;-83
2023/10/19 09:55:37;;;;;;;13.20;3.95;;;16.20;99.90;;;;;;5036752;28;20026;-84
2023/10/19 09:58:14;;;;;;;12.93;3.28;;;16.20;99.90;;;;;;5017487;28;20064;-81
2023/10/19 10:00:49;;;;;;;11.15;3.85;;;16.20;99.90;;;;;;5035270;28;20025;-82
2023/10/19 10:03:42;;;;;;;16.10;2.65;;;16.30;99.90;;;;;;5017414;28;20482;-84
2023/10/19 10:06:09;;;;;;;12.75;3.72;;;16.40;99.90;;;;;;5035109;28;20026;-84
2023/10/19 10:08:39;;;;;;;11.07;2.92;;;16.50;99.90;;;;;;5035446;28;20026;-82
2023/10/19 10:11:20;;;;;;;14.75;3.35;;;16.70;99.90;;;;;;5035435;28;20520;-82
2023/10/19 10:13:56;;;;;;;6.55;2.40;;;16.80;99.90;;;;;;5017431;28;20406;-83
2023/10/19 10:16:28;;;;;;;12.65;2.83;;;16.90;99.90;;;;;;5036051;28;20048;-82
2023/10/19 10:19:01;;;;;;;10.57;2.72;;;17.00;99.90;;;;;;5035496;28;20072;-84
2023/10/19 10:21:29;;;;;;;14.55;3.25;;;17.20;99.90;;;;;;5035180;28;20033;-87
2023/10/19 10:24:00;;;;;;;12.20;2.97;;;17.50;99.90;;;;;;5017225;28;20446;-87
2023/10/19 10:26:29;;;;;;;9.00;2.08;;;17.60;99.90;;;;;;5035755;28;20033;-88
2023/10/19 10:29:09;;;;;;;11.25;1.95;;;17.70;99.90;;;;;;5036420;28;20112;-89
2023/10/19 10:31:43;;;;;;;8.73;2.00;;;17.70;99.90;;;;;;5015564;28;20050;-85
2023/10/19 10:34:10;;;;;;;10.23;1.58;;;17.70;99.90;;;;;;5016188;28;20051;-87
2023/10/19 10:37:07;;;;;;;7.18;1.40;;;17.70;99.90;;;;;;5015635;28;20022;-88
2023/10/19 10:39:34;;;;;;;5.30;1.38;;;17.60;99.90;;;;;;5016266;28;20030;-89
2023/10/19 10:42:03;;;;;;;9.70;1.65;;;17.60;99.90;;;;;;5015007;28;20030;-84
2023/10/19 10:44:40;;;;;;;10.27;1.70;;;17.70;99.90;;;;;;5016214;28;20443;-88
2023/10/19 10:47:29;;;;;;;7.93;1.90;;;17.60;99.90;;;;;;5015629;28;20525;-89
2023/10/19 10:50:00;;;;;;;9.57;1.67;;;17.60;99.90;;;;;;5016643;28;20030;-87
2023/10/19 10:52:33;;;;;;;5.82;1.33;;;17.60;99.90;;;;;;5014077;28;20037;-87
2023/10/19 10:55:07;;;;;;;6.28;1.17;;;17.60;99.90;;;;;;5015321;28;20048;-87
2023/10/19 10:57:34;;;;;;;11.20;2.10;;;17.60;99.90;;;;;;5015218;28;20030;-87
2023/10/19 11:00:08;;;;;;;5.25;1.23;;;17.60;99.90;;;;;;5015421;28;20022;-86
2023/10/19 11:02:42;;;;;;;9.52;1.77;;;17.70;99.90;;;;;;5014877;28;20038;-88
2023/10/19 11:05:12;;;;;;;7.50;1.35;;;17.70;99.90;;;;;;5015616;28;20069;-86
2023/10/19 11:07:39;;;;;;;6.75;1.58;;;17.70;99.90;;;;;;5015164;28;20060;-86
2023/10/19 11:10:05;;;;;;;7.20;1.50;;;17.70;99.90;;;;;;5014777;28;20478;-88
2023/10/19 11:12:32;;;;;;;5.38;1.60;;;17.70;99.90;;;;;;5014968;28;20026;-87
2023/10/19 11:14:59;;;;;;;8.35;1.48;;;17.70;99.90;;;;;;5014751;28;20501;-89
2023/10/19 11:17:30;;;;;;;7.78;1.10;;;17.70;99.90;;;;;;5013278;28;20030;-84
2023/10/19 11:19:56;;;;;;;9.32;1.90;;;17.60;99.90;;;;;;5014609;28;20067;-83
2023/10/19 11:22:26;;;;;;;14.45;2.50;;;17.60;99.90;;;;;;5014592;28;20593;-84
2023/10/19 11:24:54;;;;;;;10.65;1.90;;;17.70;99.90;;;;;;5013910;28;20030;-84
2023/10/19 11:27:26;;;;;;;9.77;1.67;;;17.80;99.90;;;;;;5013444;28;20022;-81
2023/10/19 11:29:56;;;;;;;7.93;1.67;;;17.80;99.90;;;;;;4996033;28;20046;-83
2023/10/19 11:32:25;;;;;;;8.07;1.50;;;17.90;99.90;;;;;;5028739;28;20065;-82
2023/10/19 11:34:56;;;;;;;9.38;1.52;;;18.00;99.90;;;;;;5033627;28;20068;-79
2023/10/19 11:37:22;;;;;;;10.15;1.58;;;18.10;99.90;;;;;;5016193;28;20029;-78
2023/10/19 11:39:49;;;;;;;9.18;1.50;;;18.20;99.90;;;;;;5015942;28;20053;-80
2023/10/19 11:42:18;;;;;;;10.93;2.20;;;18.20;99.90;;;;;;5033004;28;20033;-81
2023/10/19 11:44:44;;;;;;;9.23;1.45;;;18.20;99.90;;;;;;5033395;28;20026;-80
2023/10/19 11:47:10;;;;;;;7.78;1.25;;;18.20;99.90;;;;;;5033428;28;20026;-79
2023/10/19 11:49:36;;;;;;;12.55;1.40;;;18.20;99.90;;;;;;5033351;28;20036;-80
2023/10/19 11:52:07;;;;;;;8.35;1.40;;;18.30;99.90;;;;;;5033327;28;20045;-82
2023/10/19 11:54:34;;;;;;;9.50;1.40;;;18.50;99.90;;;;;;5033588;28;20087;-79
2023/10/19 11:56:59;;;;;;;12.02;1.77;;;18.60;99.90;;;;;;5033777;28;20053;-79
2023/10/19 11:59:26;;;;;;;9.20;2.28;;;18.60;99.90;;;;;;5033341;28;20064;-78
2023/10/19 12:01:52;;;;;;;8.20;1.38;;;18.50;99.90;;;;;;5015596;28;20430;-79
2023/10/19 12:04:18;;;;;;;6.38;1.38;;;18.50;99.90;;;;;;5015557;28;20044;-79
2023/10/19 12:06:45;;;;;;;9.13;1.58;;;18.60;99.90;;;;;;5036282;28;20034;-79
2023/10/19 12:09:14;;;;;;;9.40;1.33;;;18.80;99.90;;;;;;5020571;28;20376;-79
2023/10/19 12:11:47;;;;;;;11.15;1.10;;;18.80;99.90;;;;;;5037466;28;20140;-78
2023/10/19 12:14:14;;;;;;;6.88;1.08;;;18.80;99.90;;;;;;5019289;28;20029;-80
2023/10/19 12:16:40;;;;;;;9.70;1.80;;;18.80;99.90;;;;;;5037415;28;20026;-78
2023/10/19 12:19:07;;;;;;;8.27;1.20;;;18.80;99.90;;;;;;5036986;28;20546;-80
2023/10/19 12:21:33;;;;;;;10.70;2.55;;;18.80;99.90;;;;;;5020173;28;20037;-76
2023/10/19 12:24:01;;;;;;;10.98;2.10;;;18.80;99.90;;;;;;5036822;28;20033;-79
2023/10/19 12:26:26;;;;;;;9.18;2.00;;;18.70;99.90;;;;;;5037050;28;20056;-80
2023/10/19 12:28:52;;;;;;;8.85;2.47;;;18.60;99.90;;;;;;5036823;28;20053;-78
2023/10/19 12:31:18;;;;;;;10.82;3.13;;;18.60;99.90;;;;;;5002827;28;20054;-76
2023/10/19 12:33:44;;;;;;;14.00;3.03;;;18.50;99.90;;;;;;5037119;28;20367;-77
2023/10/19 12:38:49;;;;;;;7.40;2.10;;;18.40;99.90;;;;;;5020685;28;20040;-78
2023/10/19 12:41:15;;;;;;;9.07;2.20;;;18.30;99.90;;;;;;5036729;28;20028;-78
2023/10/19 12:43:41;;;;;;;8.93;2.75;;;18.30;99.90;;;;;;5036805;28;20359;-78
2023/10/19 12:46:08;;;;;;;9.57;2.63;;;18.30;99.90;;;;;;5036427;28;20434;-76
2023/10/19 12:48:35;;;;;;;9.40;2.47;;;18.30;99.90;;;;;;5019050;28;20113;-76
2023/10/19 12:51:06;;;;;;;14.50;3.00;;;18.30;99.90;;;;;;5018887;28;20117;-76
2023/10/19 12:53:33;;;;;;;9.13;2.30;;;18.20;99.90;;;;;;5036973;28;20029;-74
2023/10/19 12:55:59;;;;;;;8.13;2.42;;;18.10;99.90;;;;;;5018791;28;20269;-74
2023/10/19 12:58:27;;;;;;;8.88;2.25;;;18.10;99.90;;;;;;5018404;28;20025;-75
2023/10/19 13:00:54;;;;;;;10.05;2.67;;;18.10;99.90;;;;;;5018691;28;20474;-76
2023/10/19 13:03:21;;;;;;;9.02;3.00;;;18.00;99.90;;;;;;5036164;28;20110;-76
2023/10/19 13:05:49;;;;;;;11.25;2.45;;;18.00;99.90;;;;;;5036402;28;20030;-76
2023/10/19 13:08:15;;;;;;;10.35;2.53;;;18.00;99.90;;;;;;5036091;28;20022;-75
2023/10/19 13:10:45;;;;;;;14.32;2.88;;;18.00;99.90;;;;;;5036008;28;20030;-76
2023/10/19 13:13:14;;;;;;;12.18;2.53;;;17.90;99.90;;;;;;5018525;28;20040;-75
2023/10/19 13:15:41;;;;;;;11.20;2.45;;;17.90;99.90;;;;;;5036660;28;20030;-76
2023/10/19 13:18:13;;;;;;;14.45;2.92;;;17.90;99.90;;;;;;5018312;28;20055;-75